Airfield :
LOGIN :

Register | Disclaimer

   EN    FR    IT 

 










Legend :    VFR   Marginal VFR   IFR   Intensive IFR   Very Intensive IFR
Visi :
Ceiling :
>= 8 km
>= 3000ft
5 to 8 km
1000 to 3000 ft
1500m to 5 km
500 to 1000 ft
800 to 1500m
200 to 500 ft
< 800m
< 200 ft
Symbols :   Thunderstorms  Fog  Heavy snow  Heavy precipitations  Wind > 20 kt
SIGMETs :     Misc.  Thunderstorms  Icing  Turbulence  Mountain Waves  Volcanic Ashes






- Airport Elevation : 425 ft
- IATA code : DTM


EDLW - Dortmund

CURRENT METAR :
  • 082150Z AUTO 16006KT 9999 // FEW005/// SCT017/// BKN056/// 15/14 Q1016

EXPIRED METARs :
  • 082120Z AUTO 17007KT 5000 // FEW015/// SCT046/// OVC054/// 15/14 Q1016
  • 082050Z AUTO 18006KT 9999 // FEW027/// BKN031/// OVC043/// 15/14 Q1016
  • 082020Z AUTO 17007KT 9999 // SCT033/// SCT038/// BKN057/// 15/13 Q1016
  • 081950Z AUTO 17006KT 9999 // FEW043/// BKN063/// OVC072/// 15/13 Q1016
  • 081920Z 18006KT 150V210 9999 FEW015 BKN023 15/13 Q1016

TAF TAF EDLW
Valid from the 08 at 18:00 until the 09 at 18:00 UTC


081700Z 0818/0918 20005KT 9999 BKN015
TEMPO 0818/0820 3500 -RADZ BR BKN008
BECMG 0820/0822 BKN007
TEMPO 0820/0909 2500 DZRA BR BKN004
BECMG 0905/0908 23012KT
BECMG 0909/0912 BKN020
TEMPO 0910/0914 24015G25KT
BECMG 0915/0918 25007KT



MET'MAP, your aeronautical weather chart ! - Copyright ORBIFLY December 2007 - Disclaimer

ORBIFLY MET'MAP TEAM :

Programming & Development : Alexandra Zaïnal
Concept & original design : Baudouin d'Aumeries
Assistance for programming : Marc-Olivier Méhu
Technical & hardware support : Manuel Goepfert

Contact : metmap@orbifly.com




SOURCES & CREDITS :

   NOAA